createdAt,value
2022-11-22T00:00:05.715Z,977.99
2022-11-22T00:01:05.734Z,977.98
2022-11-22T00:02:05.819Z,977.94
2022-11-22T00:03:05.766Z,977.98
2022-11-22T00:04:05.781Z,978.01
2022-11-22T00:05:05.801Z,977.98
2022-11-22T00:06:05.817Z,977.95
2022-11-22T00:07:05.897Z,977.91
2022-11-22T00:08:05.847Z,977.91
2022-11-22T00:09:05.865Z,977.92
2022-11-22T00:10:05.883Z,977.9
2022-11-22T00:11:05.896Z,977.87
2022-11-22T00:12:05.911Z,977.86
2022-11-22T00:13:05.956Z,977.84
2022-11-22T00:14:05.947Z,977.88
2022-11-22T00:15:05.964Z,977.81
2022-11-22T00:16:05.981Z,977.84
2022-11-22T00:17:05.998Z,977.85
2022-11-22T00:18:06.024Z,977.84
2022-11-22T00:19:06.031Z,977.87
2022-11-22T00:20:06.047Z,977.8
2022-11-22T00:21:06.067Z,977.75
2022-11-22T00:22:06.080Z,977.8
2022-11-22T00:23:06.098Z,977.75
2022-11-22T00:24:06.116Z,977.77
2022-11-22T00:25:06.137Z,977.72
2022-11-22T00:26:06.145Z,977.65
2022-11-22T00:27:06.172Z,977.65
2022-11-22T00:28:06.184Z,977.61
2022-11-22T00:29:06.223Z,977.59
2022-11-22T00:30:06.222Z,977.6
2022-11-22T00:31:06.239Z,977.64
2022-11-22T00:32:06.255Z,977.64
2022-11-22T00:33:06.270Z,977.58
2022-11-22T00:34:06.282Z,977.55
2022-11-22T00:35:06.304Z,977.52
2022-11-22T00:36:06.319Z,977.46
2022-11-22T00:37:06.330Z,977.48
2022-11-22T00:38:06.364Z,977.5
2022-11-22T00:39:06.375Z,977.47
2022-11-22T00:40:06.385Z,977.45
2022-11-22T00:41:06.409Z,977.46
2022-11-22T00:42:06.424Z,977.46
2022-11-22T00:43:06.439Z,977.46
2022-11-22T00:44:06.459Z,977.42
2022-11-22T00:45:06.499Z,977.37
2022-11-22T00:46:06.491Z,977.41
2022-11-22T00:47:06.507Z,977.4
2022-11-22T00:48:06.525Z,977.38
2022-11-22T00:49:06.548Z,977.44
2022-11-22T00:50:06.563Z,977.43
2022-11-22T00:51:06.572Z,977.45
2022-11-22T00:52:06.592Z,977.42
2022-11-22T00:53:06.607Z,977.38
2022-11-22T00:54:06.625Z,977.39
2022-11-22T00:55:06.649Z,977.36
2022-11-22T00:56:06.664Z,977.39
2022-11-22T00:57:06.675Z,977.33
2022-11-22T00:58:06.693Z,977.37
2022-11-22T00:59:06.708Z,977.31
2022-11-22T01:00:06.725Z,977.21
2022-11-22T01:01:06.825Z,977.27
2022-11-22T01:02:06.761Z,977.25
2022-11-22T01:03:06.772Z,977.27
2022-11-22T01:04:06.793Z,977.25
2022-11-22T01:05:06.808Z,977.24
2022-11-22T01:06:06.824Z,977.19
2022-11-22T01:07:06.907Z,977.21
2022-11-22T01:08:06.860Z,977.19
2022-11-22T01:09:06.872Z,977.22
2022-11-22T01:10:06.896Z,977.19
2022-11-22T01:11:06.905Z,977.16
2022-11-22T01:12:06.923Z,977.18
2022-11-22T01:13:06.946Z,977.19
2022-11-22T01:14:06.959Z,977.18
2022-11-22T01:15:06.973Z,977.19
2022-11-22T01:16:06.992Z,977.16
2022-11-22T01:17:07.028Z,977.11
2022-11-22T01:18:07.024Z,977.08
2022-11-22T01:19:07.039Z,977.07
2022-11-22T01:20:07.055Z,977.02
2022-11-22T01:21:07.081Z,977.04
2022-11-22T01:22:07.101Z,977.01
2022-11-22T01:23:07.102Z,976.99
2022-11-22T01:24:07.121Z,976.97
2022-11-22T01:25:07.139Z,976.93
2022-11-22T01:26:07.159Z,976.9
2022-11-22T01:27:07.170Z,976.9
2022-11-22T01:28:07.189Z,976.9
2022-11-22T01:29:07.203Z,976.9
2022-11-22T01:30:07.226Z,976.91
2022-11-22T01:31:07.235Z,976.89
2022-11-22T01:32:07.251Z,976.82
2022-11-22T01:33:07.297Z,976.85
2022-11-22T01:34:07.292Z,976.81
2022-11-22T01:35:07.308Z,976.79
2022-11-22T01:36:07.316Z,976.79
2022-11-22T01:37:07.335Z,976.74
2022-11-22T01:38:07.350Z,976.77
2022-11-22T01:39:07.368Z,976.81
2022-11-22T01:40:07.380Z,976.83
2022-11-22T01:41:07.397Z,976.79
2022-11-22T01:42:07.413Z,976.8
2022-11-22T01:43:07.431Z,976.84
2022-11-22T01:44:07.449Z,976.9
2022-11-22T01:45:07.465Z,976.9
2022-11-22T01:46:07.480Z,976.89
2022-11-22T01:47:07.496Z,976.93
2022-11-22T01:48:07.515Z,976.96
2022-11-22T01:49:07.555Z,976.96
2022-11-22T01:50:07.547Z,976.96
2022-11-22T01:51:07.563Z,976.96
2022-11-22T01:52:07.581Z,976.99
2022-11-22T01:53:07.598Z,976.97
2022-11-22T01:54:07.613Z,976.96
2022-11-22T01:55:07.627Z,976.95
2022-11-22T01:56:07.645Z,976.92
2022-11-22T01:57:07.662Z,976.94
2022-11-22T01:58:07.679Z,976.9
2022-11-22T01:59:07.695Z,976.94
2022-11-22T02:00:07.713Z,976.92
2022-11-22T02:01:07.831Z,976.9
2022-11-22T02:02:07.745Z,976.87
2022-11-22T02:03:07.761Z,976.9
2022-11-22T02:04:07.777Z,976.86
2022-11-22T02:05:07.818Z,976.87
2022-11-22T02:06:07.813Z,976.86
2022-11-22T02:07:07.883Z,976.89
2022-11-22T02:08:07.847Z,976.95
2022-11-22T02:09:07.859Z,976.92
2022-11-22T02:10:07.879Z,976.88
2022-11-22T02:11:07.902Z,976.85
2022-11-22T02:12:07.910Z,976.85
2022-11-22T02:13:07.930Z,976.82
2022-11-22T02:14:07.948Z,976.81
2022-11-22T02:15:07.960Z,976.85
2022-11-22T02:16:07.978Z,976.86
2022-11-22T02:17:07.993Z,976.88
2022-11-22T02:18:08.011Z,976.88
2022-11-22T02:19:08.027Z,976.89
2022-11-22T02:20:08.046Z,976.84
2022-11-22T02:21:08.084Z,976.9
2022-11-22T02:22:08.075Z,976.91
2022-11-22T02:23:08.098Z,976.89
2022-11-22T02:24:08.109Z,976.9
2022-11-22T02:25:08.128Z,976.92
2022-11-22T02:26:08.143Z,976.95
2022-11-22T02:27:08.161Z,976.95
2022-11-22T02:28:08.177Z,976.98
2022-11-22T02:29:08.192Z,976.95
2022-11-22T02:30:08.210Z,977.01
2022-11-22T02:31:08.222Z,976.96
2022-11-22T02:32:08.241Z,977.03
2022-11-22T02:33:08.265Z,977
2022-11-22T02:34:08.276Z,976.98
2022-11-22T02:35:08.288Z,977.07
2022-11-22T02:36:08.304Z,977.03
2022-11-22T02:37:08.347Z,977
2022-11-22T02:38:08.340Z,976.98
2022-11-22T02:39:08.353Z,976.98
2022-11-22T02:40:08.395Z,976.91
2022-11-22T02:41:08.387Z,976.94
2022-11-22T02:42:08.401Z,976.87
2022-11-22T02:43:08.416Z,976.92
2022-11-22T02:44:08.433Z,976.94
2022-11-22T02:45:08.450Z,976.97
2022-11-22T02:46:08.464Z,977
2022-11-22T02:47:08.483Z,976.98
2022-11-22T02:48:08.497Z,976.95
2022-11-22T02:49:08.517Z,976.95
2022-11-22T02:50:08.533Z,976.97
2022-11-22T02:51:08.548Z,976.92
2022-11-22T02:52:08.565Z,976.97
2022-11-22T02:53:08.612Z,976.94
2022-11-22T02:54:08.597Z,976.93
2022-11-22T02:55:08.612Z,976.91
2022-11-22T02:56:08.627Z,976.86
2022-11-22T02:57:08.644Z,976.88
2022-11-22T02:58:08.679Z,976.84
2022-11-22T02:59:08.680Z,976.84
2022-11-22T03:00:08.692Z,976.84
2022-11-22T03:01:08.834Z,976.91
2022-11-22T03:02:08.724Z,976.88
2022-11-22T03:03:08.741Z,976.83
2022-11-22T03:04:08.778Z,976.86
2022-11-22T03:05:08.773Z,976.94
2022-11-22T03:06:08.788Z,976.94
2022-11-22T03:07:08.863Z,976.98
2022-11-22T03:08:08.821Z,976.96
2022-11-22T03:09:08.866Z,976.98
2022-11-22T03:10:08.854Z,976.93
2022-11-22T03:11:08.868Z,977.01
2022-11-22T03:12:08.885Z,976.96
2022-11-22T03:13:08.901Z,977.04
2022-11-22T03:14:08.918Z,976.98
2022-11-22T03:15:08.937Z,977
2022-11-22T03:16:08.948Z,976.99
2022-11-22T03:17:08.964Z,976.99
2022-11-22T03:18:08.982Z,977.04
2022-11-22T03:19:08.997Z,977.02
2022-11-22T03:20:09.014Z,976.99
2022-11-22T03:21:09.028Z,977.03
2022-11-22T03:22:11.393Z,977.04
2022-11-22T03:23:09.058Z,977.03
2022-11-22T03:24:09.080Z,977.16
2022-11-22T03:25:09.114Z,977.12
2022-11-22T03:26:09.141Z,977.17
2022-11-22T03:27:09.125Z,977.17
2022-11-22T03:28:09.342Z,977.2
2022-11-22T03:29:09.153Z,977.18
2022-11-22T03:30:09.173Z,977.15
2022-11-22T03:31:09.191Z,977.16
2022-11-22T03:32:09.205Z,977.14
2022-11-22T03:33:09.232Z,977.2
2022-11-22T03:34:09.233Z,977.2
2022-11-22T03:35:09.246Z,977.21
2022-11-22T03:36:09.271Z,977.21
2022-11-22T03:37:09.281Z,977.23
2022-11-22T03:38:09.299Z,977.22
2022-11-22T03:39:09.313Z,977.26
2022-11-22T03:40:09.329Z,977.25
2022-11-22T03:41:09.396Z,977.28
2022-11-22T03:42:09.362Z,977.33
2022-11-22T03:43:09.375Z,977.28
2022-11-22T03:44:09.392Z,977.3
2022-11-22T03:45:09.408Z,977.32
2022-11-22T03:46:09.427Z,977.34
2022-11-22T03:47:09.439Z,977.34
2022-11-22T03:48:09.460Z,977.4
2022-11-22T03:49:09.470Z,977.42
2022-11-22T03:50:09.489Z,977.46
2022-11-22T03:51:09.501Z,977.46
2022-11-22T03:52:09.521Z,977.53
2022-11-22T03:53:09.536Z,977.44
2022-11-22T03:54:09.553Z,977.43
2022-11-22T03:55:09.566Z,977.48
2022-11-22T03:56:09.584Z,977.44
2022-11-22T03:57:09.621Z,977.46
2022-11-22T03:58:09.616Z,977.45
2022-11-22T03:59:09.628Z,977.42
2022-11-22T04:00:09.648Z,977.45
2022-11-22T04:01:13.446Z,977.44
2022-11-22T04:02:09.757Z,977.4
2022-11-22T04:03:09.693Z,977.46
2022-11-22T04:04:09.708Z,977.41
2022-11-22T04:05:09.732Z,977.47
2022-11-22T04:06:09.742Z,977.48
2022-11-22T04:07:09.819Z,977.54
2022-11-22T04:08:09.773Z,977.54
2022-11-22T04:09:09.857Z,977.49
2022-11-22T04:10:09.801Z,977.5
2022-11-22T04:11:09.820Z,977.51
2022-11-22T04:12:09.834Z,977.55
2022-11-22T04:13:09.877Z,977.53
2022-11-22T04:14:09.867Z,977.54
2022-11-22T04:15:09.881Z,977.53
2022-11-22T04:16:09.899Z,977.61
2022-11-22T04:17:09.915Z,977.6
2022-11-22T04:18:09.928Z,977.66
2022-11-22T04:19:09.947Z,977.61
2022-11-22T04:20:09.958Z,977.61
2022-11-22T04:21:09.979Z,977.62
2022-11-22T04:22:09.990Z,977.62
2022-11-22T04:23:10.006Z,977.57
2022-11-22T04:24:10.031Z,977.56
2022-11-22T04:25:10.035Z,977.57
2022-11-22T04:26:10.055Z,977.62
2022-11-22T04:27:10.075Z,977.66
2022-11-22T04:28:10.285Z,977.68
2022-11-22T04:29:10.670Z,977.73
2022-11-22T04:30:10.114Z,977.74
2022-11-22T04:31:10.136Z,977.75
2022-11-22T04:32:10.147Z,977.75
2022-11-22T04:33:10.167Z,977.74
2022-11-22T04:34:10.179Z,977.82
2022-11-22T04:35:10.196Z,977.85
2022-11-22T04:36:13.255Z,977.83
2022-11-22T04:37:10.227Z,977.83
2022-11-22T04:38:10.242Z,977.82
2022-11-22T04:39:10.260Z,977.83
2022-11-22T04:40:10.278Z,977.85
2022-11-22T04:41:10.290Z,977.88
2022-11-22T04:42:10.305Z,977.89
2022-11-22T04:43:10.323Z,977.88
2022-11-22T04:44:10.334Z,977.88
2022-11-22T04:45:10.382Z,977.86
2022-11-22T04:46:10.366Z,977.89
2022-11-22T04:47:10.389Z,977.91
2022-11-22T04:48:10.399Z,977.94
2022-11-22T04:49:10.414Z,977.89
2022-11-22T04:50:10.434Z,977.86
2022-11-22T04:51:10.449Z,977.9
2022-11-22T04:52:10.458Z,977.87
2022-11-22T04:53:10.480Z,977.96
2022-11-22T04:54:10.493Z,977.96
2022-11-22T04:55:10.508Z,978
2022-11-22T04:56:10.523Z,977.98
2022-11-22T04:57:10.540Z,977.97
2022-11-22T04:58:10.555Z,978.01
2022-11-22T04:59:10.573Z,977.99
2022-11-22T05:00:10.588Z,978
2022-11-22T05:01:10.769Z,978
2022-11-22T05:02:10.619Z,977.97
2022-11-22T05:03:10.633Z,978.04
2022-11-22T05:04:10.650Z,977.98
2022-11-22T05:05:10.669Z,978
2022-11-22T05:06:10.681Z,977.95
2022-11-22T05:07:10.749Z,977.94
2022-11-22T05:08:10.713Z,977.96
2022-11-22T05:09:10.727Z,977.95
2022-11-22T05:10:10.745Z,977.97
2022-11-22T05:11:10.761Z,977.93
2022-11-22T05:12:10.777Z,977.97
2022-11-22T05:13:10.786Z,978.01
2022-11-22T05:14:10.805Z,977.96
2022-11-22T05:15:10.818Z,977.99
2022-11-22T05:16:10.839Z,977.99
2022-11-22T05:17:13.298Z,977.97
2022-11-22T05:18:10.867Z,978
2022-11-22T05:19:11.292Z,978.03
2022-11-22T05:20:10.900Z,978.04
2022-11-22T05:21:10.920Z,978.09
2022-11-22T05:22:10.933Z,978.07
2022-11-22T05:23:10.948Z,978.07
2022-11-22T05:24:10.965Z,978.02
2022-11-22T05:25:10.975Z,978.08
2022-11-22T05:26:10.999Z,978.08
2022-11-22T05:27:11.007Z,978.04
2022-11-22T05:28:11.079Z,978.08
2022-11-22T05:29:11.041Z,978.08
2022-11-22T05:30:11.055Z,978.08
2022-11-22T05:31:11.074Z,978.04
2022-11-22T05:32:11.086Z,978.05
2022-11-22T05:33:11.129Z,978.1
2022-11-22T05:34:11.121Z,978.07
2022-11-22T05:35:11.133Z,978.04
2022-11-22T05:36:11.151Z,978.05
2022-11-22T05:37:11.165Z,978.06
2022-11-22T05:38:11.189Z,978.07
2022-11-22T05:39:11.197Z,978.07
2022-11-22T05:40:11.212Z,978.09
2022-11-22T05:41:11.227Z,978.1
2022-11-22T05:42:11.243Z,978.1
2022-11-22T05:43:11.261Z,978.1
2022-11-22T05:44:11.275Z,978.09
2022-11-22T05:45:11.284Z,978.11
2022-11-22T05:46:11.306Z,978.08
2022-11-22T05:47:11.322Z,978.1
2022-11-22T05:48:11.344Z,978.07
2022-11-22T05:49:11.379Z,978.05
2022-11-22T05:50:11.376Z,978.06
2022-11-22T05:51:11.388Z,978.06
2022-11-22T05:52:11.398Z,978.05
2022-11-22T05:53:11.415Z,978.14
2022-11-22T05:54:11.431Z,978.14
2022-11-22T05:55:11.464Z,978.16
2022-11-22T05:56:11.465Z,978.18
2022-11-22T05:57:11.482Z,978.16
2022-11-22T05:58:11.493Z,978.15
2022-11-22T05:59:11.513Z,978.2
2022-11-22T06:00:11.526Z,978.14
2022-11-22T06:01:11.541Z,978.15
2022-11-22T06:02:11.613Z,978.15
2022-11-22T06:03:11.574Z,978.15
2022-11-22T06:04:11.589Z,978.16
2022-11-22T06:05:11.632Z,978.16
2022-11-22T06:06:11.621Z,978.16
2022-11-22T06:07:11.675Z,978.15
2022-11-22T06:08:11.653Z,978.12
2022-11-22T06:09:11.670Z,978.16
2022-11-22T06:10:11.687Z,978.15
2022-11-22T06:11:11.699Z,978.18
2022-11-22T06:12:11.712Z,978.2
2022-11-22T06:13:11.732Z,978.24
2022-11-22T06:14:11.746Z,978.3
2022-11-22T06:15:11.761Z,978.33
2022-11-22T06:16:11.778Z,978.33
2022-11-22T06:17:11.792Z,978.35
2022-11-22T06:18:11.812Z,978.36
2022-11-22T06:19:11.826Z,978.37
2022-11-22T06:20:11.841Z,978.4
2022-11-22T06:21:11.881Z,978.4
2022-11-22T06:22:11.869Z,978.46
2022-11-22T06:23:11.886Z,978.49
2022-11-22T06:24:11.901Z,978.52
2022-11-22T06:25:11.919Z,978.5
2022-11-22T06:26:11.934Z,978.55
2022-11-22T06:27:11.951Z,978.53
2022-11-22T06:28:11.963Z,978.56
2022-11-22T06:29:11.979Z,978.53
2022-11-22T06:30:11.995Z,978.62
2022-11-22T06:31:12.012Z,978.6
2022-11-22T06:32:12.024Z,978.64
2022-11-22T06:33:12.037Z,978.63
2022-11-22T06:34:12.057Z,978.64
2022-11-22T06:35:12.074Z,978.64
2022-11-22T06:36:12.088Z,978.66
2022-11-22T06:37:12.125Z,978.64
2022-11-22T06:38:12.121Z,978.68
2022-11-22T06:39:12.138Z,978.67
2022-11-22T06:40:12.149Z,978.67
2022-11-22T06:41:12.168Z,978.62
2022-11-22T06:42:12.182Z,978.62
2022-11-22T06:43:12.197Z,978.67
2022-11-22T06:44:12.215Z,978.67
2022-11-22T06:45:12.226Z,978.71
2022-11-22T06:46:12.246Z,978.73
2022-11-22T06:47:12.259Z,978.77
2022-11-22T06:48:12.279Z,978.79
2022-11-22T06:49:12.291Z,978.79
2022-11-22T06:50:14.194Z,978.81
2022-11-22T06:51:12.322Z,978.84
2022-11-22T06:52:12.338Z,978.83
2022-11-22T06:53:26.512Z,978.87
2022-11-22T06:54:12.368Z,978.87
2022-11-22T06:55:34.924Z,978.94
2022-11-22T06:56:12.402Z,978.91
2022-11-22T06:57:12.416Z,978.96
2022-11-22T06:58:12.434Z,978.95
2022-11-22T06:59:12.446Z,978.98
2022-11-22T07:00:12.464Z,979.02
2022-11-22T07:01:12.553Z,978.98
2022-11-22T07:02:12.502Z,978.98
2022-11-22T07:03:12.510Z,979.03
2022-11-22T07:04:12.524Z,978.99
2022-11-22T07:05:27.812Z,979
2022-11-22T07:06:12.562Z,979.02
2022-11-22T07:07:12.589Z,978.99
2022-11-22T07:08:14.049Z,979
2022-11-22T07:09:12.630Z,979.03
2022-11-22T07:10:12.621Z,979.03
2022-11-22T07:11:12.634Z,979
2022-11-22T07:12:12.648Z,979.03
2022-11-22T07:13:12.667Z,979.02
2022-11-22T07:14:12.686Z,979.03
2022-11-22T07:15:12.698Z,978.97
2022-11-22T07:16:12.715Z,978.99
2022-11-22T07:17:12.728Z,978.99
2022-11-22T07:18:12.947Z,978.99
2022-11-22T07:19:12.807Z,978.97
2022-11-22T07:20:12.766Z,978.98
2022-11-22T07:21:13.741Z,978.97
2022-11-22T07:22:12.907Z,978.97
2022-11-22T07:23:12.922Z,978.97
2022-11-22T07:24:12.836Z,978.98
2022-11-22T07:25:12.879Z,978.99
2022-11-22T07:26:12.865Z,979.02
2022-11-22T07:27:12.984Z,979.01
2022-11-22T07:28:12.896Z,979.03
2022-11-22T07:29:12.911Z,979.05
2022-11-22T07:30:12.926Z,979.1
2022-11-22T07:31:12.946Z,979.13
2022-11-22T07:32:12.956Z,979.15
2022-11-22T07:33:12.974Z,979.17
2022-11-22T07:34:12.985Z,979.21
2022-11-22T07:35:13.012Z,979.22
2022-11-22T07:36:13.031Z,979.22
2022-11-22T07:37:13.034Z,979.25
2022-11-22T07:38:13.050Z,979.26
2022-11-22T07:39:13.069Z,979.27
2022-11-22T07:40:13.081Z,979.27
2022-11-22T07:41:13.122Z,979.3
2022-11-22T07:42:13.108Z,979.34
2022-11-22T07:43:13.128Z,979.35
2022-11-22T07:44:13.159Z,979.4
2022-11-22T07:45:13.161Z,979.38
2022-11-22T07:46:13.174Z,979.38
2022-11-22T07:47:15.237Z,979.38
2022-11-22T07:48:13.207Z,979.39
2022-11-22T07:49:13.218Z,979.39
2022-11-22T07:50:13.232Z,979.44
2022-11-22T07:51:13.248Z,979.43
2022-11-22T07:52:13.265Z,979.47
2022-11-22T07:53:13.280Z,979.43
2022-11-22T07:54:13.290Z,979.47
2022-11-22T07:55:14.347Z,979.49
2022-11-22T07:56:13.326Z,979.45
2022-11-22T07:57:13.467Z,979.46
2022-11-22T07:58:13.358Z,979.4
2022-11-22T07:59:13.370Z,979.45
2022-11-22T08:00:13.397Z,979.46
2022-11-22T08:01:13.440Z,979.45
2022-11-22T08:02:13.486Z,979.47
2022-11-22T08:03:17.522Z,979.46
2022-11-22T08:04:13.444Z,979.5
2022-11-22T08:05:13.475Z,979.48
2022-11-22T08:06:13.487Z,979.47
2022-11-22T08:07:13.572Z,979.49
2022-11-22T08:08:13.522Z,979.51
2022-11-22T08:09:13.524Z,979.53
2022-11-22T08:10:13.546Z,979.57
2022-11-22T08:11:13.565Z,979.61
2022-11-22T08:12:13.566Z,979.61
2022-11-22T08:13:13.704Z,979.58
2022-11-22T08:14:13.652Z,979.6
2022-11-22T08:15:13.627Z,979.57
2022-11-22T08:16:13.632Z,979.63
2022-11-22T08:17:13.651Z,979.6
2022-11-22T08:18:13.760Z,979.61
2022-11-22T08:19:13.679Z,979.64
2022-11-22T08:20:13.698Z,979.62
2022-11-22T08:21:13.713Z,979.66
2022-11-22T08:22:13.720Z,979.66
2022-11-22T08:23:13.739Z,979.64
2022-11-22T08:24:13.752Z,979.64
2022-11-22T08:25:13.779Z,979.65
2022-11-22T08:26:13.788Z,979.66
2022-11-22T08:27:13.805Z,979.7
2022-11-22T08:28:13.821Z,979.7
2022-11-22T08:29:14.619Z,979.69
2022-11-22T08:30:13.862Z,979.74
2022-11-22T08:31:13.864Z,979.7
2022-11-22T08:32:13.881Z,979.7
2022-11-22T08:33:13.892Z,979.69
2022-11-22T08:34:13.911Z,979.67
2022-11-22T08:35:13.990Z,979.67
2022-11-22T08:36:13.944Z,979.68
2022-11-22T08:37:13.963Z,979.69
2022-11-22T08:38:13.973Z,979.7
2022-11-22T08:39:13.985Z,979.72
2022-11-22T08:40:14.016Z,979.71
2022-11-22T08:41:14.023Z,979.74
2022-11-22T08:42:14.042Z,979.75
2022-11-22T08:43:14.055Z,979.67
2022-11-22T08:44:14.064Z,979.68
2022-11-22T08:45:14.211Z,979.66
2022-11-22T08:46:14.100Z,979.65
2022-11-22T08:47:14.120Z,979.62
2022-11-22T08:48:17.780Z,979.66
2022-11-22T08:49:14.150Z,979.63
2022-11-22T08:50:14.164Z,979.66
2022-11-22T08:51:14.174Z,979.67
2022-11-22T08:52:14.199Z,979.63
2022-11-22T08:53:14.209Z,979.59
2022-11-22T08:54:14.222Z,979.63
2022-11-22T08:55:14.242Z,979.62
2022-11-22T08:56:14.251Z,979.66
2022-11-22T08:57:14.272Z,979.65
2022-11-22T08:58:14.288Z,979.66
2022-11-22T08:59:14.370Z,979.64
2022-11-22T09:00:14.319Z,979.67
2022-11-22T09:01:14.594Z,979.67
2022-11-22T09:02:14.352Z,979.69
2022-11-22T09:03:14.365Z,979.72
2022-11-22T09:04:14.384Z,979.7
2022-11-22T09:05:14.488Z,979.78
2022-11-22T09:08:23.692Z,979.83
2022-11-22T09:09:37.195Z,979.9
2022-11-22T09:10:23.629Z,979.86
2022-11-22T09:11:23.645Z,979.86
2022-11-22T09:12:23.658Z,979.88
2022-11-22T09:13:23.676Z,979.91
2022-11-22T09:14:23.698Z,979.9
2022-11-22T09:15:23.705Z,979.94
2022-11-22T09:16:23.837Z,979.93
2022-11-22T09:17:23.739Z,979.95
2022-11-22T09:18:23.804Z,979.98
2022-11-22T09:19:23.768Z,980.04
2022-11-22T09:20:23.785Z,980.03
2022-11-22T09:21:23.800Z,980.05
2022-11-22T09:22:28.170Z,980.09
2022-11-22T09:23:23.835Z,980.07
2022-11-22T09:24:23.852Z,980.02
2022-11-22T09:25:23.864Z,980.09
2022-11-22T09:26:23.880Z,980.06
2022-11-22T09:27:23.893Z,980.01
2022-11-22T09:28:23.911Z,980.05
2022-11-22T09:29:23.947Z,979.97
2022-11-22T09:30:23.945Z,979.98
2022-11-22T09:31:23.955Z,979.96
2022-11-22T09:32:24.443Z,979.97
2022-11-22T09:33:23.989Z,979.92
2022-11-22T09:34:24.001Z,979.96
2022-11-22T09:35:24.015Z,979.89
2022-11-22T09:36:24.033Z,979.93
2022-11-22T09:37:24.050Z,979.9
2022-11-22T09:38:24.067Z,979.89
2022-11-22T09:39:24.081Z,979.91
2022-11-22T09:40:24.101Z,979.95
2022-11-22T09:41:24.113Z,979.96
2022-11-22T09:42:24.127Z,979.99
2022-11-22T09:43:24.145Z,980
2022-11-22T09:44:24.157Z,980.01
2022-11-22T09:45:24.176Z,980.02
2022-11-22T09:46:24.199Z,980
2022-11-22T09:47:24.205Z,979.99
2022-11-22T09:48:24.342Z,979.99
2022-11-22T09:49:24.236Z,979.99
2022-11-22T09:50:24.252Z,979.98
2022-11-22T09:51:24.269Z,979.98
2022-11-22T09:52:24.286Z,980
2022-11-22T09:53:24.302Z,980.06
2022-11-22T09:54:24.319Z,980.01
2022-11-22T09:55:24.590Z,980.04
2022-11-22T09:56:24.347Z,980.07
2022-11-22T09:57:24.364Z,980.06
2022-11-22T09:58:24.382Z,980
2022-11-22T09:59:24.394Z,980.04
2022-11-22T10:00:24.409Z,980.1
2022-11-22T10:01:24.474Z,980.1
2022-11-22T10:02:24.439Z,980.14
2022-11-22T10:03:24.460Z,980.14
2022-11-22T10:04:24.594Z,980.12
2022-11-22T10:05:24.490Z,980.11
2022-11-22T10:06:24.508Z,980.1
2022-11-22T10:07:24.537Z,980.1
2022-11-22T10:08:24.537Z,980.11
2022-11-22T10:09:24.552Z,980.16
2022-11-22T10:10:24.566Z,980.16
2022-11-22T10:11:24.586Z,980.17
2022-11-22T10:12:24.598Z,980.17
2022-11-22T10:13:24.614Z,980.17
2022-11-22T10:14:24.630Z,980.17
2022-11-22T10:15:24.645Z,980.17
2022-11-22T10:16:24.660Z,980.17
2022-11-22T10:17:24.680Z,980.18
2022-11-22T10:18:24.744Z,980.17
2022-11-22T10:19:24.711Z,980.19
2022-11-22T10:20:24.861Z,980.12
2022-11-22T10:21:24.739Z,980.1
2022-11-22T10:22:24.754Z,980.06
2022-11-22T10:23:24.769Z,980.05
2022-11-22T10:24:24.784Z,980.03
2022-11-22T10:25:24.801Z,979.99
2022-11-22T10:26:24.817Z,979.99
2022-11-22T10:27:24.832Z,979.95
2022-11-22T10:28:24.845Z,979.92
2022-11-22T10:29:24.865Z,979.96
2022-11-22T10:30:24.877Z,979.92
2022-11-22T10:31:24.906Z,979.97
2022-11-22T10:32:24.907Z,979.95
2022-11-22T10:33:24.926Z,979.88
2022-11-22T10:34:24.939Z,979.85
2022-11-22T10:35:24.957Z,979.85
2022-11-22T10:36:25.090Z,979.81
2022-11-22T10:37:24.987Z,979.82
2022-11-22T10:38:25.004Z,979.74
2022-11-22T10:39:26.986Z,979.76
2022-11-22T10:40:25.034Z,979.77
2022-11-22T10:41:25.068Z,979.73
2022-11-22T10:42:25.064Z,979.72
2022-11-22T10:43:25.098Z,979.73
2022-11-22T10:44:25.095Z,979.77
2022-11-22T10:45:25.117Z,979.76
2022-11-22T10:46:25.127Z,979.77
2022-11-22T10:47:25.993Z,979.8
2022-11-22T10:48:25.158Z,979.83
2022-11-22T10:49:25.174Z,979.88
2022-11-22T10:50:25.189Z,979.84
2022-11-22T10:51:25.211Z,979.86
2022-11-22T10:52:25.341Z,979.86
2022-11-22T10:53:25.242Z,979.86
2022-11-22T10:54:25.251Z,979.89
2022-11-22T10:55:25.267Z,979.95
2022-11-22T10:56:25.284Z,979.92
2022-11-22T10:57:25.300Z,979.94
2022-11-22T10:58:25.314Z,979.97
2022-11-22T10:59:28.684Z,980
2022-11-22T11:00:25.347Z,979.97
2022-11-22T11:01:25.380Z,980
2022-11-22T11:02:25.381Z,980.02
2022-11-22T11:03:25.394Z,979.95
2022-11-22T11:04:25.408Z,979.95
2022-11-22T11:05:25.425Z,979.95
2022-11-22T11:06:37.716Z,979.94
2022-11-22T11:07:25.545Z,979.93
2022-11-22T11:08:42.755Z,979.96
2022-11-22T11:10:37.013Z,979.9
2022-11-22T11:11:36.924Z,979.89
2022-11-22T11:12:36.939Z,979.84
2022-11-22T11:13:36.957Z,979.82
2022-11-22T11:14:36.968Z,979.8
2022-11-22T11:15:36.986Z,979.79
2022-11-22T11:16:37.002Z,979.79
2022-11-22T11:17:37.016Z,979.8
2022-11-22T11:18:37.131Z,979.83
2022-11-22T11:19:37.047Z,979.82
2022-11-22T11:20:37.065Z,979.87
2022-11-22T11:21:37.078Z,979.84
2022-11-22T11:23:06.903Z,979.84
2022-11-22T11:23:37.231Z,979.76
2022-11-22T11:24:37.133Z,979.78
2022-11-22T11:25:37.141Z,979.74
2022-11-22T11:26:37.156Z,979.79
2022-11-22T11:27:37.174Z,979.75
2022-11-22T11:28:37.187Z,979.73
2022-11-22T11:29:38.070Z,979.71
2022-11-22T11:30:37.246Z,979.7
2022-11-22T11:31:37.235Z,979.71
2022-11-22T11:32:37.249Z,979.71
2022-11-22T11:33:37.277Z,979.72
2022-11-22T11:34:37.286Z,979.68
2022-11-22T11:35:37.294Z,979.65
2022-11-22T11:36:37.313Z,979.62
2022-11-22T11:37:37.331Z,979.55
2022-11-22T11:38:37.336Z,979.59
2022-11-22T11:39:40.626Z,979.62
2022-11-22T11:40:37.377Z,979.57
2022-11-22T11:41:42.026Z,979.57
2022-11-22T11:42:37.408Z,979.59
2022-11-22T11:43:37.423Z,979.55
2022-11-22T11:44:37.432Z,979.51
2022-11-22T11:45:37.459Z,979.5
2022-11-22T11:46:37.469Z,979.47
2022-11-22T11:47:37.485Z,979.38
2022-11-22T11:48:37.500Z,979.37
2022-11-22T11:49:37.524Z,979.49
2022-11-22T11:50:37.535Z,979.52
2022-11-22T11:51:37.551Z,979.54
2022-11-22T11:52:37.567Z,979.57
2022-11-22T11:53:37.576Z,979.56
2022-11-22T11:54:37.598Z,979.55
2022-11-22T11:55:37.733Z,979.56
2022-11-22T11:56:37.632Z,979.55
2022-11-22T11:57:37.644Z,979.52
2022-11-22T11:58:37.662Z,979.54
2022-11-22T11:59:37.683Z,979.56
2022-11-22T12:00:37.692Z,979.58
2022-11-22T12:01:39.068Z,979.59
2022-11-22T12:02:37.794Z,979.63
2022-11-22T12:03:37.741Z,979.65
2022-11-22T12:04:37.756Z,979.7
2022-11-22T12:05:37.771Z,979.69
2022-11-22T12:06:37.791Z,979.62
2022-11-22T12:07:37.874Z,979.65
2022-11-22T12:08:37.820Z,979.64
2022-11-22T12:09:37.832Z,979.61
2022-11-22T12:10:37.851Z,979.55
2022-11-22T12:11:38.009Z,979.6
2022-11-22T12:12:37.882Z,979.61
2022-11-22T12:13:51.728Z,979.63
2022-11-22T12:15:12.303Z,979.64
2022-11-22T12:16:11.608Z,979.68
2022-11-22T12:17:11.624Z,979.65
2022-11-22T12:18:11.636Z,979.61
2022-11-22T12:19:11.859Z,979.65
2022-11-22T12:20:11.668Z,979.65
2022-11-22T12:21:11.687Z,979.62
2022-11-22T12:22:16.458Z,979.67
2022-11-22T12:23:11.716Z,979.63
2022-11-22T12:24:45.519Z,979.64
2022-11-22T12:48:34.941Z,979.64
2022-11-22T12:49:34.838Z,979.67
2022-11-22T12:50:34.860Z,979.66
2022-11-22T12:51:34.872Z,979.63
2022-11-22T12:52:34.893Z,979.64
2022-11-22T12:53:34.906Z,979.61
2022-11-22T12:54:34.923Z,979.63
2022-11-22T12:55:34.936Z,979.59
2022-11-22T12:56:34.955Z,979.67
2022-11-22T12:57:34.973Z,979.57
2022-11-22T12:58:34.988Z,979.63
2022-11-22T12:59:35.001Z,979.64